sensor_id;sensor_type;location;lat;lon;timestamp;P1;durP1;ratioP1;P2;durP2;ratioP2
58468;SDS011;44257;44.804;10.220;2022-12-07T00:01:12;12.00;;;5.93;;
58468;SDS011;44257;44.804;10.220;2022-12-07T00:06:10;16.38;;;7.35;;
58468;SDS011;44257;44.804;10.220;2022-12-07T00:08:37;11.98;;;6.88;;
58468;SDS011;44257;44.804;10.220;2022-12-07T00:11:07;11.70;;;6.07;;
58468;SDS011;44257;44.804;10.220;2022-12-07T00:13:35;12.40;;;5.78;;
58468;SDS011;44257;44.804;10.220;2022-12-07T00:16:03;11.82;;;6.20;;
58468;SDS011;44257;44.804;10.220;2022-12-07T00:18:56;11.25;;;5.22;;
58468;SDS011;44257;44.804;10.220;2022-12-07T00:21:23;11.38;;;6.00;;
58468;SDS011;44257;44.804;10.220;2022-12-07T00:23:54;9.77;;;4.68;;
58468;SDS011;44257;44.804;10.220;2022-12-07T00:26:22;18.08;;;6.10;;
58468;SDS011;44257;44.804;10.220;2022-12-07T00:29:01;12.13;;;6.03;;
58468;SDS011;44257;44.804;10.220;2022-12-07T00:31:31;10.65;;;4.75;;
58468;SDS011;44257;44.804;10.220;2022-12-07T00:34:00;12.38;;;5.80;;
58468;SDS011;44257;44.804;10.220;2022-12-07T00:36:26;9.75;;;5.28;;
58468;SDS011;44257;44.804;10.220;2022-12-07T00:38:52;10.45;;;5.10;;
58468;SDS011;44257;44.804;10.220;2022-12-07T00:41:23;11.48;;;5.20;;
58468;SDS011;44257;44.804;10.220;2022-12-07T00:43:50;11.23;;;4.57;;
58468;SDS011;44257;44.804;10.220;2022-12-07T00:46:16;10.65;;;5.20;;
58468;SDS011;44257;44.804;10.220;2022-12-07T00:48:43;10.52;;;5.07;;
58468;SDS011;44257;44.804;10.220;2022-12-07T00:51:10;11.13;;;5.13;;
58468;SDS011;44257;44.804;10.220;2022-12-07T00:53:38;11.30;;;5.60;;
58468;SDS011;44257;44.804;10.220;2022-12-07T00:56:14;12.50;;;7.10;;
58468;SDS011;44257;44.804;10.220;2022-12-07T00:58:49;10.80;;;6.25;;
58468;SDS011;44257;44.804;10.220;2022-12-07T01:01:19;13.25;;;6.25;;
58468;SDS011;44257;44.804;10.220;2022-12-07T01:03:44;12.38;;;6.20;;
58468;SDS011;44257;44.804;10.220;2022-12-07T01:06:13;18.02;;;6.45;;
58468;SDS011;44257;44.804;10.220;2022-12-07T01:08:40;10.52;;;5.90;;
58468;SDS011;44257;44.804;10.220;2022-12-07T01:11:07;12.20;;;5.90;;
58468;SDS011;44257;44.804;10.220;2022-12-07T01:13:35;10.02;;;5.65;;
58468;SDS011;44257;44.804;10.220;2022-12-07T01:16:02;13.82;;;6.13;;
58468;SDS011;44257;44.804;10.220;2022-12-07T01:18:30;15.07;;;6.65;;
58468;SDS011;44257;44.804;10.220;2022-12-07T01:23:37;12.20;;;5.53;;
58468;SDS011;44257;44.804;10.220;2022-12-07T01:26:05;10.65;;;6.07;;
58468;SDS011;44257;44.804;10.220;2022-12-07T01:28:33;14.20;;;6.43;;
58468;SDS011;44257;44.804;10.220;2022-12-07T01:31:02;16.83;;;5.70;;
58468;SDS011;44257;44.804;10.220;2022-12-07T01:33:30;18.17;;;6.32;;
58468;SDS011;44257;44.804;10.220;2022-12-07T01:36:02;15.57;;;6.75;;
58468;SDS011;44257;44.804;10.220;2022-12-07T01:38:38;16.08;;;7.50;;
58468;SDS011;44257;44.804;10.220;2022-12-07T01:41:03;14.75;;;6.80;;
58468;SDS011;44257;44.804;10.220;2022-12-07T01:43:31;16.13;;;7.07;;
58468;SDS011;44257;44.804;10.220;2022-12-07T01:45:59;13.25;;;7.07;;
58468;SDS011;44257;44.804;10.220;2022-12-07T01:48:30;14.80;;;8.45;;
58468;SDS011;44257;44.804;10.220;2022-12-07T01:51:00;11.38;;;7.13;;
58468;SDS011;44257;44.804;10.220;2022-12-07T01:53:29;11.48;;;6.43;;
58468;SDS011;44257;44.804;10.220;2022-12-07T01:55:57;14.77;;;6.75;;
58468;SDS011;44257;44.804;10.220;2022-12-07T01:58:24;13.23;;;6.30;;
58468;SDS011;44257;44.804;10.220;2022-12-07T02:00:51;16.00;;;7.72;;
58468;SDS011;44257;44.804;10.220;2022-12-07T02:03:22;13.30;;;6.72;;
58468;SDS011;44257;44.804;10.220;2022-12-07T02:05:59;12.00;;;6.38;;
58468;SDS011;44257;44.804;10.220;2022-12-07T02:08:25;16.73;;;6.65;;
58468;SDS011;44257;44.804;10.220;2022-12-07T02:10:52;12.93;;;6.60;;
58468;SDS011;44257;44.804;10.220;2022-12-07T02:13:24;16.27;;;7.18;;
58468;SDS011;44257;44.804;10.220;2022-12-07T02:21:21;15.13;;;7.57;;
58468;SDS011;44257;44.804;10.220;2022-12-07T02:23:59;13.55;;;6.70;;
58468;SDS011;44257;44.804;10.220;2022-12-07T02:26:44;23.92;;;6.90;;
58468;SDS011;44257;44.804;10.220;2022-12-07T02:32:04;15.18;;;6.65;;
58468;SDS011;44257;44.804;10.220;2022-12-07T02:37:41;16.63;;;7.85;;
58468;SDS011;44257;44.804;10.220;2022-12-07T02:43:08;17.33;;;6.93;;
58468;SDS011;44257;44.804;10.220;2022-12-07T02:45:41;13.55;;;7.93;;
58468;SDS011;44257;44.804;10.220;2022-12-07T02:48:10;19.90;;;7.80;;
58468;SDS011;44257;44.804;10.220;2022-12-07T02:50:43;15.77;;;7.80;;
58468;SDS011;44257;44.804;10.220;2022-12-07T02:55:56;17.45;;;8.65;;
58468;SDS011;44257;44.804;10.220;2022-12-07T03:01:13;12.73;;;6.78;;
58468;SDS011;44257;44.804;10.220;2022-12-07T03:03:53;15.85;;;8.07;;
58468;SDS011;44257;44.804;10.220;2022-12-07T03:06:53;17.67;;;7.90;;
58468;SDS011;44257;44.804;10.220;2022-12-07T03:09:27;13.48;;;8.13;;
58468;SDS011;44257;44.804;10.220;2022-12-07T03:12:05;11.98;;;6.60;;
58468;SDS011;44257;44.804;10.220;2022-12-07T03:14:45;15.52;;;8.13;;
58468;SDS011;44257;44.804;10.220;2022-12-07T03:17:19;15.10;;;6.97;;
58468;SDS011;44257;44.804;10.220;2022-12-07T03:19:50;13.82;;;7.53;;
58468;SDS011;44257;44.804;10.220;2022-12-07T03:22:19;15.27;;;8.00;;
58468;SDS011;44257;44.804;10.220;2022-12-07T03:24:50;12.88;;;7.03;;
58468;SDS011;44257;44.804;10.220;2022-12-07T03:27:20;11.63;;;6.70;;
58468;SDS011;44257;44.804;10.220;2022-12-07T03:30:00;13.23;;;6.95;;
58468;SDS011;44257;44.804;10.220;2022-12-07T03:32:36;14.05;;;7.55;;
58468;SDS011;44257;44.804;10.220;2022-12-07T03:35:13;15.30;;;6.88;;
58468;SDS011;44257;44.804;10.220;2022-12-07T03:40:28;14.02;;;6.60;;
58468;SDS011;44257;44.804;10.220;2022-12-07T03:43:02;10.05;;;7.32;;
58468;SDS011;44257;44.804;10.220;2022-12-07T03:45:37;20.10;;;8.32;;
58468;SDS011;44257;44.804;10.220;2022-12-07T03:48:08;15.18;;;7.78;;
58468;SDS011;44257;44.804;10.220;2022-12-07T03:51:13;16.48;;;8.68;;
58468;SDS011;44257;44.804;10.220;2022-12-07T03:53:44;14.23;;;6.75;;
58468;SDS011;44257;44.804;10.220;2022-12-07T03:56:15;13.88;;;6.60;;
58468;SDS011;44257;44.804;10.220;2022-12-07T03:58:42;13.95;;;7.38;;
58468;SDS011;44257;44.804;10.220;2022-12-07T04:01:08;15.35;;;7.72;;
58468;SDS011;44257;44.804;10.220;2022-12-07T04:03:34;12.85;;;6.53;;
58468;SDS011;44257;44.804;10.220;2022-12-07T04:06:00;12.27;;;6.97;;
58468;SDS011;44257;44.804;10.220;2022-12-07T04:08:26;9.48;;;6.35;;
58468;SDS011;44257;44.804;10.220;2022-12-07T04:10:52;11.65;;;6.07;;
58468;SDS011;44257;44.804;10.220;2022-12-07T04:13:18;15.07;;;6.00;;
58468;SDS011;44257;44.804;10.220;2022-12-07T04:15:43;13.85;;;7.15;;
58468;SDS011;44257;44.804;10.220;2022-12-07T04:18:09;11.85;;;6.22;;
58468;SDS011;44257;44.804;10.220;2022-12-07T04:20:35;12.93;;;6.85;;
58468;SDS011;44257;44.804;10.220;2022-12-07T04:23:01;9.85;;;6.65;;
58468;SDS011;44257;44.804;10.220;2022-12-07T04:25:27;12.57;;;6.57;;
58468;SDS011;44257;44.804;10.220;2022-12-07T04:27:53;13.70;;;6.78;;
58468;SDS011;44257;44.804;10.220;2022-12-07T04:30:19;13.45;;;6.72;;
58468;SDS011;44257;44.804;10.220;2022-12-07T04:32:45;14.02;;;6.80;;
58468;SDS011;44257;44.804;10.220;2022-12-07T04:35:10;10.75;;;5.75;;
58468;SDS011;44257;44.804;10.220;2022-12-07T04:37:36;9.07;;;5.72;;
58468;SDS011;44257;44.804;10.220;2022-12-07T04:40:04;15.13;;;6.70;;
58468;SDS011;44257;44.804;10.220;2022-12-07T04:42:32;11.57;;;5.85;;
58468;SDS011;44257;44.804;10.220;2022-12-07T04:44:58;13.35;;;6.65;;
58468;SDS011;44257;44.804;10.220;2022-12-07T04:47:24;15.60;;;7.38;;
58468;SDS011;44257;44.804;10.220;2022-12-07T04:49:50;13.07;;;6.65;;
58468;SDS011;44257;44.804;10.220;2022-12-07T04:52:15;12.38;;;6.03;;
58468;SDS011;44257;44.804;10.220;2022-12-07T04:54:41;12.55;;;6.80;;
58468;SDS011;44257;44.804;10.220;2022-12-07T04:57:07;16.17;;;7.28;;
58468;SDS011;44257;44.804;10.220;2022-12-07T04:59:33;10.35;;;6.70;;
58468;SDS011;44257;44.804;10.220;2022-12-07T05:01:59;13.35;;;6.28;;
58468;SDS011;44257;44.804;10.220;2022-12-07T05:04:25;14.50;;;7.07;;
58468;SDS011;44257;44.804;10.220;2022-12-07T05:06:51;15.48;;;6.50;;
58468;SDS011;44257;44.804;10.220;2022-12-07T05:09:16;10.65;;;7.25;;
58468;SDS011;44257;44.804;10.220;2022-12-07T05:11:42;11.63;;;5.05;;
58468;SDS011;44257;44.804;10.220;2022-12-07T05:14:18;15.23;;;6.60;;
58468;SDS011;44257;44.804;10.220;2022-12-07T05:16:46;15.80;;;6.85;;
58468;SDS011;44257;44.804;10.220;2022-12-07T05:19:14;10.77;;;5.35;;
58468;SDS011;44257;44.804;10.220;2022-12-07T05:21:40;10.82;;;5.82;;
58468;SDS011;44257;44.804;10.220;2022-12-07T05:24:06;12.10;;;5.95;;
58468;SDS011;44257;44.804;10.220;2022-12-07T05:26:35;12.73;;;6.03;;
58468;SDS011;44257;44.804;10.220;2022-12-07T05:29:01;11.07;;;6.72;;
58468;SDS011;44257;44.804;10.220;2022-12-07T05:31:28;8.63;;;5.93;;
58468;SDS011;44257;44.804;10.220;2022-12-07T05:33:54;8.70;;;4.45;;
58468;SDS011;44257;44.804;10.220;2022-12-07T05:36:20;8.10;;;4.70;;
58468;SDS011;44257;44.804;10.220;2022-12-07T05:38:46;11.05;;;6.35;;
58468;SDS011;44257;44.804;10.220;2022-12-07T05:41:13;13.68;;;6.72;;
58468;SDS011;44257;44.804;10.220;2022-12-07T05:43:59;7.38;;;4.07;;
58468;SDS011;44257;44.804;10.220;2022-12-07T05:46:25;9.38;;;5.72;;
58468;SDS011;44257;44.804;10.220;2022-12-07T05:48:52;9.85;;;5.50;;
58468;SDS011;44257;44.804;10.220;2022-12-07T05:51:17;12.57;;;6.72;;
58468;SDS011;44257;44.804;10.220;2022-12-07T05:53:44;10.60;;;4.65;;
58468;SDS011;44257;44.804;10.220;2022-12-07T05:56:10;7.45;;;4.75;;
58468;SDS011;44257;44.804;10.220;2022-12-07T05:58:36;12.45;;;6.65;;
58468;SDS011;44257;44.804;10.220;2022-12-07T06:01:21;9.02;;;4.88;;
58468;SDS011;44257;44.804;10.220;2022-12-07T06:03:46;10.35;;;6.03;;
58468;SDS011;44257;44.804;10.220;2022-12-07T06:06:12;13.68;;;6.15;;
58468;SDS011;44257;44.804;10.220;2022-12-07T06:08:38;11.27;;;5.45;;
58468;SDS011;44257;44.804;10.220;2022-12-07T06:11:04;13.27;;;6.03;;
58468;SDS011;44257;44.804;10.220;2022-12-07T06:13:48;13.25;;;5.55;;
58468;SDS011;44257;44.804;10.220;2022-12-07T06:16:14;12.85;;;5.55;;
58468;SDS011;44257;44.804;10.220;2022-12-07T06:18:40;12.52;;;4.22;;
58468;SDS011;44257;44.804;10.220;2022-12-07T06:21:05;10.85;;;6.22;;
58468;SDS011;44257;44.804;10.220;2022-12-07T06:23:31;9.05;;;4.95;;
58468;SDS011;44257;44.804;10.220;2022-12-07T06:25:57;11.82;;;5.75;;
58468;SDS011;44257;44.804;10.220;2022-12-07T06:28:23;8.15;;;5.25;;
58468;SDS011;44257;44.804;10.220;2022-12-07T06:30:56;10.70;;;5.72;;
58468;SDS011;44257;44.804;10.220;2022-12-07T06:33:28;10.77;;;4.97;;
58468;SDS011;44257;44.804;10.220;2022-12-07T06:35:54;10.45;;;6.38;;
58468;SDS011;44257;44.804;10.220;2022-12-07T06:38:20;10.75;;;4.97;;
58468;SDS011;44257;44.804;10.220;2022-12-07T06:40:46;10.43;;;5.45;;
58468;SDS011;44257;44.804;10.220;2022-12-07T06:43:13;17.25;;;6.20;;
58468;SDS011;44257;44.804;10.220;2022-12-07T06:45:40;9.45;;;5.88;;
58468;SDS011;44257;44.804;10.220;2022-12-07T06:48:06;14.75;;;6.65;;
58468;SDS011;44257;44.804;10.220;2022-12-07T06:50:32;14.48;;;8.02;;
58468;SDS011;44257;44.804;10.220;2022-12-07T06:52:58;12.20;;;7.13;;
58468;SDS011;44257;44.804;10.220;2022-12-07T06:55:24;8.88;;;5.13;;
58468;SDS011;44257;44.804;10.220;2022-12-07T06:57:49;10.77;;;5.75;;
58468;SDS011;44257;44.804;10.220;2022-12-07T07:00:15;12.73;;;6.28;;
58468;SDS011;44257;44.804;10.220;2022-12-07T07:02:42;7.97;;;5.63;;
58468;SDS011;44257;44.804;10.220;2022-12-07T07:05:07;10.57;;;6.00;;
58468;SDS011;44257;44.804;10.220;2022-12-07T07:07:33;10.38;;;5.28;;
58468;SDS011;44257;44.804;10.220;2022-12-07T07:09:59;11.63;;;5.85;;
58468;SDS011;44257;44.804;10.220;2022-12-07T07:12:25;13.23;;;6.82;;
58468;SDS011;44257;44.804;10.220;2022-12-07T07:14:51;9.93;;;5.03;;
58468;SDS011;44257;44.804;10.220;2022-12-07T07:17:17;10.13;;;7.13;;
58468;SDS011;44257;44.804;10.220;2022-12-07T07:19:42;10.10;;;5.88;;
58468;SDS011;44257;44.804;10.220;2022-12-07T07:22:08;11.32;;;5.72;;
58468;SDS011;44257;44.804;10.220;2022-12-07T07:24:34;13.75;;;5.75;;
58468;SDS011;44257;44.804;10.220;2022-12-07T07:27:00;12.20;;;5.80;;
58468;SDS011;44257;44.804;10.220;2022-12-07T07:29:26;12.15;;;6.40;;
58468;SDS011;44257;44.804;10.220;2022-12-07T07:31:52;11.68;;;5.55;;
58468;SDS011;44257;44.804;10.220;2022-12-07T07:34:17;11.35;;;6.05;;
58468;SDS011;44257;44.804;10.220;2022-12-07T07:36:43;13.15;;;6.28;;
58468;SDS011;44257;44.804;10.220;2022-12-07T07:39:09;11.70;;;6.57;;
58468;SDS011;44257;44.804;10.220;2022-12-07T07:41:38;15.35;;;6.60;;
58468;SDS011;44257;44.804;10.220;2022-12-07T07:44:10;8.70;;;5.25;;
58468;SDS011;44257;44.804;10.220;2022-12-07T07:46:36;14.45;;;6.88;;
58468;SDS011;44257;44.804;10.220;2022-12-07T07:49:02;13.52;;;5.60;;
58468;SDS011;44257;44.804;10.220;2022-12-07T07:51:28;13.15;;;6.68;;
58468;SDS011;44257;44.804;10.220;2022-12-07T07:53:54;8.88;;;4.85;;
58468;SDS011;44257;44.804;10.220;2022-12-07T07:56:19;11.05;;;6.38;;
58468;SDS011;44257;44.804;10.220;2022-12-07T07:58:45;13.77;;;6.07;;
58468;SDS011;44257;44.804;10.220;2022-12-07T08:01:11;9.07;;;5.35;;
58468;SDS011;44257;44.804;10.220;2022-12-07T08:03:38;14.50;;;5.63;;
58468;SDS011;44257;44.804;10.220;2022-12-07T08:06:04;10.93;;;6.40;;
58468;SDS011;44257;44.804;10.220;2022-12-07T08:08:31;12.23;;;7.20;;
58468;SDS011;44257;44.804;10.220;2022-12-07T08:10:57;21.00;;;6.50;;
58468;SDS011;44257;44.804;10.220;2022-12-07T08:13:26;13.65;;;6.32;;
58468;SDS011;44257;44.804;10.220;2022-12-07T08:15:53;11.85;;;7.15;;
58468;SDS011;44257;44.804;10.220;2022-12-07T08:18:18;10.07;;;6.88;;
58468;SDS011;44257;44.804;10.220;2022-12-07T08:20:44;13.05;;;5.90;;
58468;SDS011;44257;44.804;10.220;2022-12-07T08:23:10;13.68;;;6.90;;
58468;SDS011;44257;44.804;10.220;2022-12-07T08:25:36;10.85;;;6.85;;
58468;SDS011;44257;44.804;10.220;2022-12-07T08:28:03;14.23;;;6.95;;
58468;SDS011;44257;44.804;10.220;2022-12-07T08:30:29;13.98;;;7.07;;
58468;SDS011;44257;44.804;10.220;2022-12-07T08:32:56;10.05;;;6.05;;
58468;SDS011;44257;44.804;10.220;2022-12-07T08:35:22;10.88;;;7.35;;
58468;SDS011;44257;44.804;10.220;2022-12-07T08:37:48;10.30;;;5.93;;
58468;SDS011;44257;44.804;10.220;2022-12-07T08:40:14;13.18;;;6.93;;
58468;SDS011;44257;44.804;10.220;2022-12-07T08:42:47;18.08;;;9.63;;
58468;SDS011;44257;44.804;10.220;2022-12-07T08:45:14;19.55;;;6.88;;
58468;SDS011;44257;44.804;10.220;2022-12-07T08:47:50;17.50;;;5.88;;
58468;SDS011;44257;44.804;10.220;2022-12-07T08:50:31;13.95;;;8.27;;
58468;SDS011;44257;44.804;10.220;2022-12-07T08:52:59;14.70;;;5.70;;
58468;SDS011;44257;44.804;10.220;2022-12-07T08:55:26;12.82;;;7.00;;
58468;SDS011;44257;44.804;10.220;2022-12-07T08:57:53;17.48;;;7.22;;
58468;SDS011;44257;44.804;10.220;2022-12-07T09:00:20;14.13;;;7.03;;
58468;SDS011;44257;44.804;10.220;2022-12-07T09:02:46;12.52;;;5.93;;
58468;SDS011;44257;44.804;10.220;2022-12-07T09:05:12;12.55;;;8.25;;
58468;SDS011;44257;44.804;10.220;2022-12-07T09:07:39;12.13;;;6.60;;
58468;SDS011;44257;44.804;10.220;2022-12-07T09:10:07;11.95;;;6.22;;
58468;SDS011;44257;44.804;10.220;2022-12-07T09:12:33;10.60;;;5.72;;
58468;SDS011;44257;44.804;10.220;2022-12-07T09:14:58;13.75;;;5.82;;
58468;SDS011;44257;44.804;10.220;2022-12-07T09:17:25;15.02;;;6.95;;
58468;SDS011;44257;44.804;10.220;2022-12-07T09:19:52;12.05;;;6.85;;
58468;SDS011;44257;44.804;10.220;2022-12-07T09:22:17;12.98;;;6.55;;
58468;SDS011;44257;44.804;10.220;2022-12-07T09:24:43;11.30;;;5.90;;
58468;SDS011;44257;44.804;10.220;2022-12-07T09:27:11;16.52;;;7.68;;
58468;SDS011;44257;44.804;10.220;2022-12-07T09:29:37;13.15;;;6.13;;
58468;SDS011;44257;44.804;10.220;2022-12-07T09:32:02;11.82;;;5.15;;
58468;SDS011;44257;44.804;10.220;2022-12-07T09:34:30;11.90;;;6.90;;
58468;SDS011;44257;44.804;10.220;2022-12-07T09:36:57;9.77;;;6.35;;
58468;SDS011;44257;44.804;10.220;2022-12-07T09:39:23;10.82;;;5.68;;
58468;SDS011;44257;44.804;10.220;2022-12-07T09:41:49;13.15;;;7.25;;
58468;SDS011;44257;44.804;10.220;2022-12-07T09:44:21;11.98;;;6.05;;
58468;SDS011;44257;44.804;10.220;2022-12-07T09:46:49;12.57;;;5.13;;
58468;SDS011;44257;44.804;10.220;2022-12-07T09:49:19;11.18;;;5.68;;
58468;SDS011;44257;44.804;10.220;2022-12-07T09:54:35;15.57;;;6.13;;
58468;SDS011;44257;44.804;10.220;2022-12-07T09:57:04;16.42;;;6.38;;
58468;SDS011;44257;44.804;10.220;2022-12-07T09:59:30;15.05;;;8.25;;
58468;SDS011;44257;44.804;10.220;2022-12-07T10:01:56;14.30;;;7.22;;
58468;SDS011;44257;44.804;10.220;2022-12-07T10:04:47;16.33;;;5.90;;
58468;SDS011;44257;44.804;10.220;2022-12-07T10:07:13;15.75;;;7.47;;
58468;SDS011;44257;44.804;10.220;2022-12-07T10:09:39;16.45;;;6.70;;
58468;SDS011;44257;44.804;10.220;2022-12-07T10:12:06;13.00;;;6.53;;
58468;SDS011;44257;44.804;10.220;2022-12-07T10:14:35;14.93;;;8.35;;
58468;SDS011;44257;44.804;10.220;2022-12-07T10:17:25;9.73;;;5.82;;
58468;SDS011;44257;44.804;10.220;2022-12-07T10:22:55;12.35;;;7.05;;
58468;SDS011;44257;44.804;10.220;2022-12-07T10:25:27;11.95;;;5.72;;
58468;SDS011;44257;44.804;10.220;2022-12-07T10:28:18;12.45;;;7.45;;
58468;SDS011;44257;44.804;10.220;2022-12-07T10:30:59;12.65;;;5.75;;
58468;SDS011;44257;44.804;10.220;2022-12-07T10:36:26;9.98;;;4.65;;
58468;SDS011;44257;44.804;10.220;2022-12-07T10:39:03;11.43;;;4.53;;
58468;SDS011;44257;44.804;10.220;2022-12-07T10:42:15;8.77;;;4.57;;
58468;SDS011;44257;44.804;10.220;2022-12-07T10:44:32;13.93;;;6.03;;
58468;SDS011;44257;44.804;10.220;2022-12-07T11:00:24;11.10;;;5.75;;
58468;SDS011;44257;44.804;10.220;2022-12-07T11:16:56;19.40;;;6.95;;
58468;SDS011;44257;44.804;10.220;2022-12-07T11:27:07;11.50;;;7.15;;
58468;SDS011;44257;44.804;10.220;2022-12-07T11:37:28;18.23;;;7.97;;
58468;SDS011;44257;44.804;10.220;2022-12-07T11:40:05;17.48;;;7.63;;
58468;SDS011;44257;44.804;10.220;2022-12-07T11:42:39;14.73;;;7.50;;
58468;SDS011;44257;44.804;10.220;2022-12-07T11:48:09;14.65;;;6.50;;
58468;SDS011;44257;44.804;10.220;2022-12-07T11:50:43;18.83;;;8.18;;
58468;SDS011;44257;44.804;10.220;2022-12-07T12:04:19;13.35;;;7.20;;
58468;SDS011;44257;44.804;10.220;2022-12-07T12:07:21;22.38;;;10.65;;
58468;SDS011;44257;44.804;10.220;2022-12-07T12:09:53;17.65;;;7.72;;
58468;SDS011;44257;44.804;10.220;2022-12-07T12:18:04;17.50;;;8.35;;
58468;SDS011;44257;44.804;10.220;2022-12-07T12:20:43;17.05;;;9.43;;
58468;SDS011;44257;44.804;10.220;2022-12-07T12:23:27;21.33;;;9.95;;
58468;SDS011;44257;44.804;10.220;2022-12-07T12:26:17;15.00;;;7.95;;
58468;SDS011;44257;44.804;10.220;2022-12-07T12:36:55;11.65;;;6.60;;
58468;SDS011;44257;44.804;10.220;2022-12-07T12:39:21;15.35;;;6.93;;
58468;SDS011;44257;44.804;10.220;2022-12-07T12:51:56;21.80;;;9.77;;
58468;SDS011;44257;44.804;10.220;2022-12-07T12:54:27;19.40;;;8.93;;
58468;SDS011;44257;44.804;10.220;2022-12-07T13:23:37;16.48;;;9.98;;
58468;SDS011;44257;44.804;10.220;2022-12-07T13:28:46;15.13;;;8.85;;
58468;SDS011;44257;44.804;10.220;2022-12-07T13:31:32;19.42;;;8.25;;
58468;SDS011;44257;44.804;10.220;2022-12-07T13:34:00;18.45;;;8.52;;
58468;SDS011;44257;44.804;10.220;2022-12-07T13:36:38;12.20;;;8.95;;
58468;SDS011;44257;44.804;10.220;2022-12-07T13:39:15;19.30;;;8.48;;
58468;SDS011;44257;44.804;10.220;2022-12-07T13:41:44;15.48;;;9.15;;
58468;SDS011;44257;44.804;10.220;2022-12-07T13:44:16;19.30;;;10.20;;
58468;SDS011;44257;44.804;10.220;2022-12-07T13:49:32;15.32;;;7.60;;
58468;SDS011;44257;44.804;10.220;2022-12-07T13:57:26;19.60;;;8.32;;
58468;SDS011;44257;44.804;10.220;2022-12-07T13:59:53;16.92;;;10.10;;
58468;SDS011;44257;44.804;10.220;2022-12-07T14:02:20;18.80;;;8.45;;
58468;SDS011;44257;44.804;10.220;2022-12-07T14:04:49;20.48;;;10.80;;
58468;SDS011;44257;44.804;10.220;2022-12-07T14:07:23;20.40;;;8.95;;
58468;SDS011;44257;44.804;10.220;2022-12-07T14:09:58;15.98;;;7.43;;
58468;SDS011;44257;44.804;10.220;2022-12-07T14:12:30;19.50;;;9.05;;
58468;SDS011;44257;44.804;10.220;2022-12-07T14:14:57;19.67;;;7.00;;
58468;SDS011;44257;44.804;10.220;2022-12-07T14:17:25;15.30;;;8.18;;
58468;SDS011;44257;44.804;10.220;2022-12-07T14:19:59;19.83;;;8.98;;
58468;SDS011;44257;44.804;10.220;2022-12-07T14:22:36;20.10;;;9.52;;
58468;SDS011;44257;44.804;10.220;2022-12-07T14:27:38;22.58;;;11.25;;
58468;SDS011;44257;44.804;10.220;2022-12-07T14:30:15;19.45;;;9.82;;
58468;SDS011;44257;44.804;10.220;2022-12-07T14:32:42;22.70;;;11.50;;
58468;SDS011;44257;44.804;10.220;2022-12-07T14:35:14;18.40;;;7.65;;
58468;SDS011;44257;44.804;10.220;2022-12-07T14:37:43;19.45;;;9.63;;
58468;SDS011;44257;44.804;10.220;2022-12-07T14:40:14;21.02;;;10.82;;
58468;SDS011;44257;44.804;10.220;2022-12-07T14:42:43;27.10;;;9.88;;
58468;SDS011;44257;44.804;10.220;2022-12-07T14:45:21;20.10;;;10.73;;
58468;SDS011;44257;44.804;10.220;2022-12-07T14:47:48;20.02;;;11.18;;
58468;SDS011;44257;44.804;10.220;2022-12-07T14:50:15;19.38;;;9.40;;
58468;SDS011;44257;44.804;10.220;2022-12-07T14:52:43;18.55;;;8.80;;
58468;SDS011;44257;44.804;10.220;2022-12-07T14:55:23;18.80;;;8.63;;
58468;SDS011;44257;44.804;10.220;2022-12-07T14:57:54;17.73;;;6.60;;
58468;SDS011;44257;44.804;10.220;2022-12-07T15:00:21;17.90;;;8.38;;
58468;SDS011;44257;44.804;10.220;2022-12-07T15:02:48;22.48;;;9.25;;
58468;SDS011;44257;44.804;10.220;2022-12-07T15:05:15;22.05;;;10.13;;
58468;SDS011;44257;44.804;10.220;2022-12-07T15:07:41;18.65;;;9.00;;
58468;SDS011;44257;44.804;10.220;2022-12-07T15:10:13;14.73;;;7.78;;
58468;SDS011;44257;44.804;10.220;2022-12-07T15:12:44;15.93;;;8.02;;
58468;SDS011;44257;44.804;10.220;2022-12-07T15:15:11;14.55;;;7.80;;
58468;SDS011;44257;44.804;10.220;2022-12-07T15:17:37;20.65;;;8.35;;
58468;SDS011;44257;44.804;10.220;2022-12-07T15:20:04;19.73;;;9.63;;
58468;SDS011;44257;44.804;10.220;2022-12-07T15:22:31;25.15;;;10.65;;
58468;SDS011;44257;44.804;10.220;2022-12-07T15:24:57;18.15;;;8.50;;
58468;SDS011;44257;44.804;10.220;2022-12-07T15:27:23;20.05;;;7.95;;
58468;SDS011;44257;44.804;10.220;2022-12-07T15:29:48;20.17;;;8.73;;
58468;SDS011;44257;44.804;10.220;2022-12-07T15:32:14;19.08;;;7.28;;
58468;SDS011;44257;44.804;10.220;2022-12-07T15:34:42;22.23;;;9.55;;
58468;SDS011;44257;44.804;10.220;2022-12-07T15:37:08;20.23;;;8.90;;
58468;SDS011;44257;44.804;10.220;2022-12-07T15:39:35;14.35;;;8.80;;
58468;SDS011;44257;44.804;10.220;2022-12-07T15:42:14;25.08;;;9.45;;
58468;SDS011;44257;44.804;10.220;2022-12-07T15:44:40;14.85;;;6.43;;
58468;SDS011;44257;44.804;10.220;2022-12-07T15:47:24;18.40;;;9.23;;
58468;SDS011;44257;44.804;10.220;2022-12-07T15:49:51;11.98;;;7.93;;
58468;SDS011;44257;44.804;10.220;2022-12-07T15:52:17;15.90;;;8.90;;
58468;SDS011;44257;44.804;10.220;2022-12-07T15:54:44;18.23;;;8.70;;
58468;SDS011;44257;44.804;10.220;2022-12-07T15:57:10;20.25;;;9.13;;
58468;SDS011;44257;44.804;10.220;2022-12-07T15:59:36;15.00;;;7.65;;
58468;SDS011;44257;44.804;10.220;2022-12-07T16:02:01;22.77;;;10.70;;
58468;SDS011;44257;44.804;10.220;2022-12-07T16:04:28;16.83;;;7.65;;
58468;SDS011;44257;44.804;10.220;2022-12-07T16:06:54;16.48;;;6.90;;
58468;SDS011;44257;44.804;10.220;2022-12-07T16:09:21;16.08;;;9.52;;
58468;SDS011;44257;44.804;10.220;2022-12-07T16:11:47;30.50;;;9.52;;
58468;SDS011;44257;44.804;10.220;2022-12-07T16:14:15;15.20;;;7.60;;
58468;SDS011;44257;44.804;10.220;2022-12-07T16:16:41;19.63;;;8.75;;
58468;SDS011;44257;44.804;10.220;2022-12-07T16:19:07;26.40;;;9.02;;
58468;SDS011;44257;44.804;10.220;2022-12-07T16:21:34;13.63;;;8.52;;
58468;SDS011;44257;44.804;10.220;2022-12-07T16:24:00;18.50;;;9.15;;
58468;SDS011;44257;44.804;10.220;2022-12-07T16:26:26;20.30;;;10.70;;
58468;SDS011;44257;44.804;10.220;2022-12-07T16:28:53;19.25;;;9.60;;
58468;SDS011;44257;44.804;10.220;2022-12-07T16:31:21;15.68;;;7.97;;
58468;SDS011;44257;44.804;10.220;2022-12-07T16:33:49;20.95;;;10.77;;
58468;SDS011;44257;44.804;10.220;2022-12-07T16:36:16;18.85;;;7.28;;
58468;SDS011;44257;44.804;10.220;2022-12-07T16:38:43;25.85;;;11.20;;
58468;SDS011;44257;44.804;10.220;2022-12-07T16:41:10;22.02;;;10.07;;
58468;SDS011;44257;44.804;10.220;2022-12-07T16:43:36;15.88;;;9.73;;
58468;SDS011;44257;44.804;10.220;2022-12-07T16:46:03;23.20;;;9.23;;
58468;SDS011;44257;44.804;10.220;2022-12-07T16:48:29;18.85;;;9.98;;
58468;SDS011;44257;44.804;10.220;2022-12-07T16:50:56;18.90;;;7.95;;
58468;SDS011;44257;44.804;10.220;2022-12-07T16:53:22;17.83;;;9.02;;
58468;SDS011;44257;44.804;10.220;2022-12-07T16:55:49;18.02;;;9.68;;
58468;SDS011;44257;44.804;10.220;2022-12-07T16:58:16;15.25;;;7.50;;
58468;SDS011;44257;44.804;10.220;2022-12-07T17:00:42;16.73;;;9.43;;
58468;SDS011;44257;44.804;10.220;2022-12-07T17:03:09;23.33;;;11.23;;
58468;SDS011;44257;44.804;10.220;2022-12-07T17:05:39;26.60;;;8.90;;
58468;SDS011;44257;44.804;10.220;2022-12-07T17:08:05;22.90;;;9.07;;
58468;SDS011;44257;44.804;10.220;2022-12-07T17:10:33;34.58;;;12.18;;